Archiv-/Tagesdaten

--Timestamp---	Temp	Chill	HIndex	Humid	Dewpt	Wind	HiWind	WindDir	Rain	Barom	Solar	ET	UV
--------------	----	-----	------	-----	-----	----	------	-------	----	-----	-----	--	--
20071217 00:05	-3.1	-8.1	-3.1	79	-6.2	14	26	112	0.00	1034.782	0	0.000	0
20071217 00:10	-3.1	-6.4	-3.1	80	-6.1	8	19	112	0.00	1034.782	0	0.000	0
20071217 00:15	-3.1	-6.4	-3.1	80	-6.1	8	16	90	0.00	1034.816	0	0.000	0
20071217 00:20	-3.1	-5.8	-3.1	80	-6.1	6	14	67	0.00	1034.816	0	0.000	0
20071217 00:25	-3.1	-5.7	-3.1	80	-6.0	6	18	90	0.00	1034.917	0	0.000	0
20071217 00:30	-3.1	-5.8	-3.1	80	-6.1	6	14	112	0.00	1034.748	0	0.000	0
20071217 00:35	-3.1	-6.9	-3.1	80	-6.1	10	23	90	0.00	1034.816	0	0.000	0
20071217 00:40	-3.1	-8.1	-3.1	80	-6.1	14	23	112	0.00	1034.917	0	0.000	0
20071217 00:45	-3.1	-7.4	-3.1	80	-6.1	11	23	112	0.00	1034.917	0	0.000	0
20071217 00:50	-3.1	-6.9	-3.1	80	-6.1	10	23	112	0.00	1034.816	0	0.000	0
20071217 00:55	-3.1	-3.1	-3.1	80	-6.1	5	11	135	0.00	1034.849	0	0.000	0
20071217 01:00	-3.1	-3.1	-3.1	81	-5.9	3	8	90	0.00	1034.646	0	0.020	0
20071217 01:05	-3.1	-3.1	-3.1	80	-6.1	5	11	90	0.00	1034.714	0	0.000	0
20071217 01:10	-3.1	-6.4	-3.1	80	-6.1	8	19	90	0.00	1034.714	0	0.000	0
20071217 01:15	-3.1	-6.4	-3.1	80	-6.1	8	18	90	0.00	1034.748	0	0.000	0
20071217 01:20	-3.1	-6.4	-3.1	80	-6.1	8	18	90	0.00	1034.612	0	0.000	0
20071217 01:25	-3.1	-7.4	-3.1	79	-6.2	11	23	112	0.00	1034.612	0	0.000	0
20071217 01:30	-3.2	-7.0	-3.2	78	-6.4	10	19	90	0.00	1034.612	0	0.000	0
20071217 01:35	-3.1	-6.9	-3.1	79	-6.2	10	19	112	0.00	1034.545	0	0.000	0
20071217 01:40	-3.2	-7.8	-3.2	78	-6.4	13	27	112	0.00	1034.443	0	0.000	0
20071217 01:45	-3.2	-7.4	-3.2	79	-6.3	11	26	112	0.00	1034.443	0	0.000	0
20071217 01:50	-3.2	-6.5	-3.2	79	-6.3	8	21	90	0.00	1034.443	0	0.000	0
20071217 01:55	-3.2	-7.0	-3.2	78	-6.4	10	23	90	0.00	1034.409	0	0.000	0
20071217 02:00	-3.2	-7.8	-3.2	78	-6.4	13	27	112	0.00	1034.443	0	0.020	0
20071217 02:05	-3.2	-7.4	-3.2	79	-6.3	11	21	112	0.00	1034.308	0	0.000	0
20071217 02:10	-3.2	-7.4	-3.2	78	-6.4	11	24	112	0.00	1034.341	0	0.000	0
20071217 02:15	-3.2	-7.8	-3.2	78	-6.4	13	23	112	0.00	1034.409	0	0.000	0
20071217 02:20	-3.2	-6.5	-3.2	78	-6.4	8	18	90	0.00	1034.477	0	0.000	0
20071217 02:25	-3.2	-7.0	-3.2	78	-6.4	10	19	90	0.00	1034.477	0	0.000	0
20071217 02:30	-3.2	-7.0	-3.2	78	-6.4	10	24	90	0.00	1034.375	0	0.000	0
20071217 02:35	-3.2	-7.5	-3.2	78	-6.5	11	23	90	0.00	1034.511	0	0.000	0
20071217 02:40	-3.2	-7.9	-3.2	78	-6.5	13	26	112	0.00	1034.443	0	0.000	0
20071217 02:45	-3.2	-8.6	-3.2	78	-6.5	16	29	112	0.00	1034.511	0	0.000	0
20071217 02:50	-3.2	-8.6	-3.2	78	-6.5	16	29	112	0.00	1034.612	0	0.000	0
20071217 02:55	-3.2	-8.3	-3.2	78	-6.5	14	26	112	0.00	1034.612	0	0.000	0
20071217 03:00	-3.2	-7.5	-3.2	77	-6.7	11	27	112	0.00	1034.578	0	0.020	0
20071217 03:05	-3.2	-7.5	-3.2	77	-6.7	11	23	112	0.00	1034.612	0	0.000	0
20071217 03:10	-3.2	-7.0	-3.2	77	-6.7	10	19	90	0.00	1034.477	0	0.000	0
20071217 03:15	-3.2	-7.0	-3.2	77	-6.7	10	24	90	0.00	1034.477	0	0.000	0
20071217 03:20	-3.2	-7.0	-3.2	77	-6.6	10	19	112	0.00	1034.409	0	0.000	0
20071217 03:25	-3.2	-7.0	-3.2	77	-6.6	10	24	90	0.00	1034.341	0	0.000	0
20071217 03:30	-3.2	-7.0	-3.2	77	-6.6	10	19	90	0.00	1034.409	0	0.000	0
20071217 03:35	-3.2	-7.0	-3.2	77	-6.6	10	19	112	0.00	1034.341	0	0.000	0
20071217 03:40	-3.2	-7.4	-3.2	77	-6.6	11	23	112	0.00	1034.341	0	0.000	0
20071217 03:45	-3.2	-7.4	-3.2	77	-6.6	11	24	112	0.00	1034.206	0	0.000	0
20071217 03:50	-3.2	-7.0	-3.2	77	-6.6	10	21	112	0.00	1034.240	0	0.000	0
20071217 03:55	-3.2	-7.0	-3.2	77	-6.6	10	24	90	0.00	1034.274	0	0.000	0
20071217 04:00	-3.2	-7.0	-3.2	77	-6.6	10	24	112	0.00	1034.172	0	0.020	0
20071217 04:05	-3.2	-7.0	-3.2	77	-6.6	10	21	112	0.00	1034.206	0	0.000	0
20071217 04:10	-3.2	-7.4	-3.2	77	-6.6	11	23	112	0.00	1034.206	0	0.000	0
20071217 04:15	-3.2	-7.5	-3.2	77	-6.7	11	23	112	0.00	1034.172	0	0.000	0
20071217 04:20	-3.2	-7.0	-3.2	78	-6.5	10	19	90	0.00	1034.104	0	0.000	0
20071217 04:25	-3.2	-7.5	-3.2	78	-6.5	11	24	90	0.00	1034.138	0	0.000	0
20071217 04:30	-3.2	-7.0	-3.2	78	-6.5	10	19	90	0.00	1034.240	0	0.000	0
20071217 04:35	-3.2	-7.0	-3.2	78	-6.5	10	23	90	0.00	1034.172	0	0.000	0
20071217 04:40	-3.2	-6.5	-3.2	79	-6.3	8	18	90	0.00	1034.206	0	0.000	0
20071217 04:45	-3.2	-7.5	-3.2	79	-6.3	11	24	90	0.00	1034.206	0	0.000	0
20071217 04:50	-3.2	-7.0	-3.2	79	-6.3	10	19	112	0.00	1034.071	0	0.000	0
20071217 04:55	-3.2	-6.5	-3.2	79	-6.3	8	29	90	0.00	1034.104	0	0.000	0
20071217 05:00	-3.2	-7.0	-3.2	79	-6.3	10	19	112	0.00	1034.037	0	0.020	0
20071217 05:05	-3.2	-7.0	-3.2	79	-6.3	10	21	112	0.00	1034.037	0	0.000	0
20071217 05:10	-3.2	-7.0	-3.2	79	-6.3	10	19	90	0.00	1034.003	0	0.000	0
20071217 05:15	-3.2	-5.9	-3.2	79	-6.3	6	14	90	0.00	1033.901	0	0.000	0
20071217 05:20	-3.2	-5.9	-3.2	80	-6.2	6	14	90	0.00	1033.935	0	0.000	0
20071217 05:25	-3.2	-3.2	-3.2	80	-6.2	5	11	90	0.00	1033.935	0	0.000	0
20071217 05:30	-3.2	-5.9	-3.2	79	-6.3	6	18	90	0.00	1033.901	0	0.000	0
20071217 05:35	-3.2	-7.0	-3.2	79	-6.3	10	21	90	0.00	1033.901	0	0.000	0
20071217 05:40	-3.2	-6.5	-3.2	79	-6.3	8	23	112	0.00	1033.800	0	0.000	0
20071217 05:45	-3.2	-5.9	-3.2	80	-6.2	6	21	135	0.00	1033.833	0	0.000	0
20071217 05:50	-3.2	-5.9	-3.2	80	-6.2	6	19	112	0.00	1033.901	0	0.000	0
20071217 05:55	-3.2	-5.9	-3.2	80	-6.2	6	18	112	0.00	1033.935	0	0.000	0
20071217 06:00	-3.2	-7.5	-3.2	80	-6.2	11	21	112	0.00	1033.901	0	0.020	0
20071217 06:05	-3.2	-7.0	-3.2	80	-6.2	10	23	90	0.00	1034.003	0	0.000	0
20071217 06:10	-3.2	-7.0	-3.2	80	-6.2	10	19	112	0.00	1033.901	0	0.000	0
20071217 06:15	-3.2	-5.9	-3.2	79	-6.3	6	16	90	0.00	1033.935	0	0.000	0
20071217 06:20	-3.2	-7.5	-3.2	79	-6.3	11	23	112	0.00	1033.935	0	0.000	0
20071217 06:25	-3.2	-8.5	-3.2	79	-6.3	16	27	112	0.00	1033.901	0	0.000	0
20071217 06:30	-3.2	-7.5	-3.2	79	-6.3	11	26	112	0.00	1033.935	0	0.000	0
20071217 06:35	-3.2	-7.5	-3.2	80	-6.2	11	23	112	0.00	1033.935	0	0.000	0
20071217 06:40	-3.2	-8.3	-3.2	80	-6.2	14	27	112	0.00	1033.935	0	0.000	0
20071217 06:45	-3.2	-7.5	-3.2	80	-6.2	11	27	90	0.00	1033.935	0	0.000	0
20071217 06:50	-3.2	-9.2	-3.2	79	-6.3	19	34	112	0.00	1033.901	0	0.000	0
20071217 06:55	-3.2	-7.5	-3.2	80	-6.2	11	23	112	0.00	1033.935	0	0.000	0
20071217 07:00	-3.2	-7.0	-3.2	80	-6.1	10	23	112	0.00	1033.901	0	0.020	0
20071217 07:05	-3.2	-7.5	-3.2	80	-6.2	11	31	112	0.00	1033.969	0	0.000	0
20071217 07:10	-3.2	-7.9	-3.2	80	-6.2	13	32	90	0.00	1034.104	0	0.000	0
20071217 07:15	-3.2	-7.5	-3.2	81	-6.0	11	26	90	0.00	1034.003	0	0.000	0
20071217 07:20	-3.2	-7.0	-3.2	80	-6.2	10	26	112	0.00	1034.071	0	0.000	0
20071217 07:25	-3.2	-8.3	-3.2	79	-6.3	14	27	112	0.00	1034.003	0	0.000	0
20071217 07:30	-3.2	-9.2	-3.2	79	-6.3	19	31	112	0.00	1034.003	0	0.000	0
20071217 07:35	-3.2	-9.2	-3.2	79	-6.3	19	31	112	0.00	1034.037	0	0.000	0
20071217 07:40	-3.2	-8.2	-3.2	80	-6.1	14	27	112	0.00	1034.206	0	0.000	0
20071217 07:45	-3.2	-7.9	-3.2	80	-6.2	13	32	112	0.00	1034.206	0	0.000	0
20071217 07:50	-3.2	-8.3	-3.2	78	-6.5	14	34	112	0.00	1034.240	0	0.000	0
20071217 07:55	-3.3	-9.5	-3.3	78	-6.6	21	34	112	0.00	1034.206	0	0.000	0
20071217 08:00	-3.3	-9.0	-3.3	79	-6.4	18	31	112	0.00	1034.138	0	0.020	0
20071217 08:05	-3.3	-9.0	-3.3	79	-6.4	18	31	112	0.00	1034.206	0	0.000	0
20071217 08:10	-3.3	-8.4	-3.3	79	-6.4	14	29	112	0.00	1034.206	0	0.000	0
20071217 08:15	-3.3	-8.7	-3.3	79	-6.4	16	29	112	0.00	1034.172	0	0.000	0
20071217 08:20	-3.4	-8.8	-3.4	79	-6.5	16	27	112	0.00	1034.104	0	0.000	0
20071217 08:25	-3.4	-8.5	-3.4	79	-6.6	14	27	112	0.00	1034.104	0	0.000	0
20071217 08:30	-3.4	-7.3	-3.4	80	-6.4	10	21	90	0.00	1034.071	0	0.000	0
20071217 08:35	-3.4	-8.2	-3.4	79	-6.6	13	26	112	0.00	1034.104	5	0.000	0
20071217 08:40	-3.5	-8.6	-3.5	79	-6.6	14	29	112	0.00	1034.037	5	0.000	0
20071217 08:45	-3.5	-7.8	-3.5	79	-6.6	11	23	112	0.00	1034.104	6	0.000	0
20071217 08:50	-3.5	-6.8	-3.5	80	-6.4	8	21	112	0.00	1034.104	7	0.000	0
20071217 08:55	-3.5	-8.2	-3.5	79	-6.6	13	24	112	0.00	1034.138	8	0.000	0
20071217 09:00	-3.6	-8.4	-3.6	79	-6.7	13	24	112	0.00	1034.172	9	0.020	0
20071217 09:05	-3.6	-7.5	-3.6	80	-6.6	10	26	112	0.00	1034.206	10	0.000	0
20071217 09:10	-3.6	-7.0	-3.6	80	-6.6	8	18	112	0.00	1034.172	12	0.000	0
20071217 09:15	-3.7	-8.4	-3.7	79	-6.8	13	24	90	0.00	1034.138	12	0.000	0
20071217 09:20	-3.7	-8.9	-3.7	78	-7.0	14	32	112	0.00	1034.138	17	0.000	0
20071217 09:25	-3.7	-8.9	-3.7	78	-7.0	14	27	112	0.00	1034.138	23	0.000	0
20071217 09:30	-3.7	-8.9	-3.7	78	-7.0	14	27	112	0.00	1034.206	22	0.000	0
20071217 09:35	-3.7	-8.5	-3.7	78	-7.0	13	27	112	0.00	1034.341	19	0.000	0
20071217 09:40	-3.7	-8.1	-3.7	78	-7.0	11	27	112	0.00	1034.308	22	0.000	0
20071217 09:45	-3.8	-8.2	-3.8	78	-7.0	11	26	112	0.00	1034.375	25	0.000	0
20071217 09:50	-3.8	-9.0	-3.8	77	-7.3	14	34	112	0.00	1034.341	26	0.000	0
20071217 09:55	-3.9	-9.4	-3.9	77	-7.3	16	32	112	0.00	1034.240	40	0.000	0
20071217 10:00	-3.9	-10.6	-3.9	77	-7.4	23	37	112	0.00	1034.308	45	0.020	0
20071217 10:05	-3.9	-9.7	-3.9	77	-7.3	18	32	112	0.00	1034.341	54	0.000	0
20071217 10:10	-3.9	-10.0	-3.9	77	-7.3	19	31	112	0.00	1034.375	55	0.000	0
20071217 10:15	-3.9	-9.8	-3.9	77	-7.4	18	29	112	0.00	1034.375	51	0.000	0
20071217 10:20	-3.9	-9.7	-3.9	76	-7.5	18	34	135	0.00	1034.409	54	0.000	0
20071217 10:25	-3.9	-10.0	-3.9	77	-7.3	19	29	112	0.00	1034.409	54	0.000	0
20071217 10:30	-3.8	-9.9	-3.8	77	-7.3	19	27	112	0.00	1034.341	51	0.000	0
20071217 10:35	-3.8	-9.0	-3.8	77	-7.3	14	26	112	0.00	1034.409	48	0.000	0
20071217 10:40	-3.8	-8.6	-3.8	77	-7.3	13	26	112	0.00	1034.409	47	0.000	0
20071217 10:45	-3.8	-8.2	-3.8	77	-7.3	11	29	112	0.00	1034.375	45	0.000	0
20071217 10:50	-3.8	-8.2	-3.8	77	-7.3	11	24	90	0.00	1034.375	48	0.000	0
20071217 10:55	-3.8	-8.2	-3.8	77	-7.3	11	24	90	0.00	1034.443	48	0.000	0
20071217 11:00	-3.8	-8.6	-3.8	76	-7.4	13	34	112	0.00	1034.375	56	0.020	0
20071217 11:05	-3.8	-9.7	-3.8	76	-7.4	18	27	112	0.00	1034.511	61	0.000	0
20071217 11:10	-3.8	-8.6	-3.8	77	-7.3	13	26	112	0.00	1034.545	57	0.000	0
20071217 11:15	-3.8	-8.6	-3.8	77	-7.3	13	24	112	0.00	1034.511	59	0.000	0
20071217 11:20	-3.8	-7.7	-3.8	77	-7.2	10	23	112	0.00	1034.375	56	0.000	0
20071217 11:25	-3.8	-8.6	-3.8	77	-7.2	13	27	112	0.00	1034.341	62	0.000	0
20071217 11:30	-3.8	-8.9	-3.8	77	-7.2	14	24	112	0.00	1034.308	70	0.000	0
20071217 11:35	-3.7	-7.1	-3.7	78	-7.0	8	18	90	0.00	1034.274	70	0.000	0
20071217 11:40	-3.7	-8.1	-3.7	78	-7.0	11	19	90	0.00	1034.037	77	0.000	0
20071217 11:45	-3.7	-9.2	-3.7	78	-7.0	16	31	112	0.00	1034.104	98	0.000	0
20071217 11:50	-3.7	-8.4	-3.7	77	-7.1	13	27	112	0.00	1034.138	104	0.000	0
20071217 11:55	-3.7	-9.2	-3.7	77	-7.2	16	32	112	0.00	1034.071	92	0.000	0
20071217 12:00	-3.7	-9.5	-3.7	77	-7.2	18	29	112	0.00	1034.071	92	0.040	0
20071217 12:05	-3.7	-9.4	-3.7	78	-6.9	18	29	112	0.00	1034.104	97	0.000	0
20071217 12:10	-3.6	-8.7	-3.6	77	-7.0	14	26	112	0.00	1034.037	91	0.000	0
20071217 12:15	-3.6	-7.9	-3.6	78	-6.8	11	23	112	0.00	1033.969	82	0.000	0
20071217 12:20	-3.6	-6.9	-3.6	78	-6.8	8	21	90	0.00	1033.901	73	0.000	0
20071217 12:25	-3.6	-7.9	-3.6	78	-6.8	11	26	90	0.00	1033.901	67	0.000	0
20071217 12:30	-3.6	-7.4	-3.6	78	-6.8	10	19	90	0.00	1033.901	67	0.000	0
20071217 12:35	-3.6	-6.9	-3.6	78	-6.8	8	18	90	0.00	1033.833	70	0.000	0
20071217 12:40	-3.6	-7.9	-3.6	78	-6.8	11	24	112	0.00	1033.833	73	0.000	0
20071217 12:45	-3.5	-7.4	-3.5	78	-6.8	10	18	90	0.00	1033.766	90	0.000	0
20071217 12:50	-3.4	-7.3	-3.4	77	-6.9	10	24	112	0.00	1033.766	89	0.000	0
20071217 12:55	-3.5	-9.2	-3.5	77	-6.9	18	29	112	0.00	1033.766	83	0.000	0
20071217 13:00	-3.5	-8.9	-3.5	78	-6.8	16	26	112	0.00	1033.800	76	0.040	0
20071217 13:05	-3.4	-7.8	-3.4	78	-6.7	11	23	135	0.00	1033.732	70	0.000	0
20071217 13:10	-3.4	-7.7	-3.4	78	-6.7	11	24	112	0.00	1033.698	65	0.000	0
20071217 13:15	-3.4	-7.7	-3.4	78	-6.7	11	23	112	0.00	1033.630	66	0.000	0
20071217 13:20	-3.3	-6.7	-3.3	78	-6.6	8	16	90	0.00	1033.596	74	0.000	0
20071217 13:25	-3.4	-8.2	-3.4	78	-6.7	13	24	90	0.00	1033.596	62	0.000	0
20071217 13:30	-3.5	-7.8	-3.5	78	-6.8	11	19	112	0.00	1033.630	65	0.000	0
20071217 13:35	-3.5	-8.2	-3.5	78	-6.8	13	29	112	0.00	1033.596	54	0.000	0
20071217 13:40	-3.6	-8.7	-3.6	78	-6.8	14	31	112	0.00	1033.495	69	0.000	0
20071217 13:45	-3.5	-8.2	-3.5	78	-6.8	13	26	90	0.00	1033.427	80	0.000	0
20071217 13:50	-3.4	-7.3	-3.4	78	-6.7	10	21	90	0.00	1033.427	74	0.000	0
20071217 13:55	-3.4	-7.8	-3.4	78	-6.7	11	24	90	0.00	1033.393	72	0.000	0
20071217 14:00	-3.4	-8.2	-3.4	78	-6.7	13	26	112	0.00	1033.326	76	0.020	0
20071217 14:05	-3.4	-7.8	-3.4	78	-6.7	11	27	112	0.00	1033.393	58	0.000	0
20071217 14:10	-3.4	-8.2	-3.4	78	-6.7	13	24	112	0.00	1033.393	57	0.000	0
20071217 14:15	-3.4	-7.3	-3.4	78	-6.7	10	21	90	0.00	1033.258	54	0.000	0
20071217 14:20	-3.5	-7.8	-3.5	79	-6.6	11	21	112	0.00	1033.326	46	0.000	0
20071217 14:25	-3.6	-8.7	-3.6	78	-6.8	14	32	112	0.00	1033.427	57	0.000	0
20071217 14:30	-3.6	-9.4	-3.6	78	-6.9	18	31	112	0.00	1033.326	64	0.000	0
20071217 14:35	-3.6	-9.1	-3.6	78	-6.9	16	27	112	0.00	1033.393	55	0.000	0
20071217 14:40	-3.6	-8.7	-3.6	78	-6.8	14	32	112	0.00	1033.495	47	0.000	0
20071217 14:45	-3.6	-6.3	-3.6	79	-6.7	6	14	90	0.00	1033.563	41	0.000	0
20071217 14:50	-3.5	-7.4	-3.5	78	-6.8	10	21	112	0.00	1033.563	38	0.000	0
20071217 14:55	-3.5	-8.2	-3.5	78	-6.8	13	29	112	0.00	1033.596	35	0.000	0
20071217 15:00	-3.5	-7.4	-3.5	78	-6.8	10	19	112	0.00	1033.664	36	0.020	0
20071217 15:05	-3.5	-7.8	-3.5	78	-6.8	11	23	112	0.00	1033.698	30	0.000	0
20071217 15:10	-3.5	-7.4	-3.5	78	-6.8	10	26	112	0.00	1033.698	27	0.000	0
20071217 15:15	-3.5	-8.6	-3.5	78	-6.8	14	32	112	0.00	1033.664	27	0.000	0
20071217 15:20	-3.5	-8.2	-3.5	77	-6.9	13	26	112	0.00	1033.766	23	0.000	0
20071217 15:25	-3.5	-6.8	-3.5	78	-6.8	8	23	90	0.00	1033.800	19	0.000	0
20071217 15:30	-3.4	-6.8	-3.4	78	-6.7	8	16	67	0.00	1033.800	16	0.000	0
20071217 15:35	-3.5	-6.8	-3.5	78	-6.8	8	16	112	0.00	1033.867	12	0.000	0
20071217 15:40	-3.5	-6.2	-3.5	78	-6.8	6	16	112	0.00	1033.969	10	0.000	0
20071217 15:45	-3.5	-3.5	-3.5	79	-6.6	5	11	90	0.00	1033.969	13	0.000	0
20071217 15:50	-3.5	-6.2	-3.5	79	-6.6	6	14	90	0.00	1033.901	10	0.000	0
20071217 15:55	-3.6	-6.3	-3.6	79	-6.7	6	16	90	0.00	1033.867	8	0.000	0
20071217 16:00	-3.6	-6.4	-3.6	79	-6.7	6	16	90	0.00	1033.867	6	0.020	0
20071217 16:05	-3.6	-6.3	-3.6	79	-6.7	6	14	90	0.00	1034.003	6	0.000	0
20071217 16:10	-3.6	-3.6	-3.6	79	-6.7	5	14	67	0.00	1033.867	2	0.000	0
20071217 16:15	-3.6	-6.4	-3.6	79	-6.7	6	14	90	0.00	1033.901	0	0.000	0
20071217 16:20	-3.6	-6.4	-3.6	80	-6.6	6	16	90	0.00	1033.867	0	0.000	0
20071217 16:25	-3.6	-3.6	-3.6	80	-6.5	5	14	112	0.00	1033.867	0	0.000	0
20071217 16:30	-3.6	-6.9	-3.6	79	-6.7	8	19	112	0.00	1033.867	0	0.000	0
20071217 16:35	-3.6	-6.3	-3.6	80	-6.5	6	14	112	0.00	1033.833	0	0.000	0
20071217 16:40	-3.6	-6.9	-3.6	79	-6.7	8	18	112	0.00	1033.833	0	0.000	0
20071217 16:45	-3.6	-6.9	-3.6	79	-6.7	8	18	90	0.00	1033.867	0	0.000	0
20071217 16:50	-3.6	-7.4	-3.6	79	-6.7	10	24	90	0.00	1033.833	0	0.000	0
20071217 16:55	-3.6	-7.4	-3.6	79	-6.7	10	26	112	0.00	1033.867	0	0.000	0
20071217 17:00	-3.6	-7.5	-3.6	79	-6.7	10	21	112	0.00	1033.833	0	0.000	0
20071217 17:05	-3.7	-8.0	-3.7	79	-6.8	11	29	90	0.00	1033.901	0	0.000	0
20071217 17:10	-3.7	-7.0	-3.7	79	-6.8	8	16	112	0.00	1034.037	0	0.000	0
20071217 17:15	-3.7	-7.1	-3.7	79	-6.8	8	18	112	0.00	1033.969	0	0.000	0
20071217 17:20	-3.7	-6.5	-3.7	79	-6.8	6	14	112	0.00	1034.104	0	0.000	0
20071217 17:25	-3.8	-7.2	-3.8	79	-6.9	8	18	135	0.00	1034.037	0	0.000	0
20071217 17:30	-3.8	-3.8	-3.8	80	-6.8	5	14	112	0.00	1034.003	0	0.000	0
20071217 17:35	-3.9	-3.9	-3.9	80	-6.9	3	8	67	0.00	1034.037	0	0.000	0
20071217 17:40	-4.0	-4.0	-4.0	80	-6.9	5	11	112	0.00	1034.104	0	0.000	0
20071217 17:45	-4.1	-4.1	-4.1	81	-6.8	3	11	112	0.00	1034.003	0	0.000	0
20071217 17:50	-4.2	-4.2	-4.2	80	-7.1	5	11	135	0.00	1034.003	0	0.000	0
20071217 17:55	-4.2	-4.2	-4.2	81	-7.0	5	11	112	0.00	1034.037	0	0.000	0
20071217 18:00	-4.3	-4.3	-4.3	81	-7.0	5	14	112	0.00	1033.969	0	0.020	0
20071217 18:05	-4.3	-4.3	-4.3	81	-7.1	3	11	112	0.00	1033.833	0	0.000	0
20071217 18:10	-4.4	-4.4	-4.4	81	-7.1	3	6	135	0.00	1033.901	0	0.000	0
20071217 18:15	-4.4	-4.4	-4.4	82	-7.0	3	10	135	0.00	1033.800	0	0.000	0
20071217 18:20	-4.5	-7.4	-4.5	82	-7.1	6	16	135	0.00	1033.800	0	0.000	0
20071217 18:25	-4.5	-4.5	-4.5	82	-7.1	5	11	112	0.00	1033.698	0	0.000	0
20071217 18:30	-4.5	-4.5	-4.5	82	-7.1	5	10	135	0.00	1033.833	0	0.000	0
20071217 18:35	-4.5	-4.5	-4.5	82	-7.1	5	14	112	0.00	1033.800	0	0.000	0
20071217 18:40	-4.6	-7.4	-4.6	82	-7.2	6	14	135	0.00	1033.800	0	0.000	0
20071217 18:45	-4.6	-4.6	-4.6	82	-7.2	5	14	135	0.00	1033.766	0	0.000	0
20071217 18:50	-4.6	-4.6	-4.6	82	-7.2	5	11	135	0.00	1033.766	0	0.000	0
20071217 18:55	-4.6	-8.2	-4.6	82	-7.2	8	14	112	0.00	1033.766	0	0.000	0
20071217 19:00	-4.7	-4.7	-4.7	83	-7.1	5	11	135	0.00	1033.833	0	0.000	0
20071217 19:05	-4.7	-4.7	-4.7	83	-7.1	5	14	135	0.00	1033.969	0	0.000	0
20071217 19:10	-4.6	-7.5	-4.6	83	-7.1	6	19	90	0.00	1034.071	0	0.000	0
20071217 19:15	-4.6	-4.6	-4.6	83	-7.1	5	11	90	0.00	1034.071	0	0.000	0
20071217 19:20	-4.7	-4.7	-4.7	83	-7.1	3	8	135	0.00	1034.071	0	0.000	0
20071217 19:25	-4.7	-4.7	-4.7	83	-7.1	3	8	112	0.00	1034.104	0	0.000	0
20071217 19:30	-4.7	-4.7	-4.7	83	-7.1	3	6	90	0.00	1034.071	0	0.000	0
20071217 19:35	-4.7	-4.7	-4.7	83	-7.1	5	10	112	0.00	1034.037	0	0.000	0
20071217 19:40	-4.7	-4.7	-4.7	83	-7.1	5	11	135	0.00	1033.969	0	0.000	0
20071217 19:45	-4.7	-4.7	-4.7	83	-7.2	5	8	135	0.00	1034.037	0	0.000	0
20071217 19:50	-4.7	-4.7	-4.7	83	-7.2	3	10	135	0.00	1034.071	0	0.000	0
20071217 19:55	-4.7	-4.7	-4.7	83	-7.2	3	10	112	0.00	1034.071	0	0.000	0
20071217 20:00	-4.7	-4.7	-4.7	83	-7.2	3	11	135	0.00	1034.206	0	0.000	0
20071217 20:05	-4.7	-4.7	-4.7	84	-7.0	3	8	90	0.00	1034.240	0	0.000	0
20071217 20:10	-4.7	-4.7	-4.7	84	-7.0	2	6	112	0.00	1034.274	0	0.000	0
20071217 20:15	-4.6	-4.6	-4.6	84	-6.9	3	5	112	0.00	1034.341	0	0.000	0
20071217 20:20	-4.6	-4.6	-4.6	84	-6.8	3	8	90	0.00	1034.375	0	0.000	0
20071217 20:25	-4.5	-4.5	-4.5	84	-6.8	3	6	135	0.00	1034.341	0	0.000	0
20071217 20:30	-4.4	-4.4	-4.4	83	-6.9	5	10	90	0.00	1034.341	0	0.000	0
20071217 20:35	-4.4	-4.4	-4.4	83	-6.8	3	8	90	0.00	1034.443	0	0.000	0
20071217 20:40	-4.4	-4.4	-4.4	84	-6.7	5	11	112	0.00	1034.375	0	0.000	0
20071217 20:45	-4.3	-8.4	-4.3	83	-6.8	10	21	90	0.00	1034.409	0	0.000	0
20071217 20:50	-4.3	-8.8	-4.3	83	-6.7	11	23	90	0.00	1034.308	0	0.000	0
20071217 20:55	-4.3	-9.2	-4.3	83	-6.7	13	24	112	0.00	1034.240	0	0.000	0
20071217 21:00	-4.3	-8.8	-4.3	83	-6.7	11	27	112	0.00	1034.308	0	0.000	0
20071217 21:05	-4.3	-9.9	-4.3	83	-6.7	16	26	112	0.00	1034.375	0	0.000	0
20071217 21:10	-4.3	-8.8	-4.3	83	-6.8	11	21	112	0.00	1034.409	0	0.000	0
20071217 21:15	-4.3	-8.4	-4.3	83	-6.8	10	18	135	0.00	1034.341	0	0.000	0
20071217 21:20	-4.3	-8.8	-4.3	83	-6.8	11	23	112	0.00	1034.409	0	0.000	0
20071217 21:25	-4.3	-8.8	-4.3	84	-6.6	11	21	112	0.00	1034.341	0	0.000	0
20071217 21:30	-4.3	-8.4	-4.3	83	-6.8	10	16	112	0.00	1034.409	0	0.000	0
20071217 21:35	-4.3	-9.6	-4.3	83	-6.8	14	23	112	0.00	1034.308	0	0.000	0
20071217 21:40	-4.4	-8.4	-4.4	83	-6.8	10	21	112	0.00	1034.172	0	0.000	0
20071217 21:45	-4.4	-8.4	-4.4	83	-6.8	10	21	112	0.00	1034.037	0	0.000	0
20071217 21:50	-4.4	-9.0	-4.4	83	-6.9	11	23	112	0.00	1033.935	0	0.000	0
20071217 21:55	-4.5	-8.0	-4.5	83	-6.9	8	23	112	0.00	1033.901	0	0.000	0
20071217 22:00	-4.5	-9.5	-4.5	84	-6.8	13	23	112	0.00	1033.901	0	0.020	0
20071217 22:05	-4.5	-8.0	-4.5	84	-6.8	8	16	112	0.00	1033.901	0	0.000	0
20071217 22:10	-4.5	-7.4	-4.5	84	-6.8	6	11	112	0.00	1033.969	0	0.000	0
20071217 22:15	-4.6	-4.6	-4.6	84	-6.8	5	11	90	0.00	1034.071	0	0.000	0
20071217 22:20	-4.6	-7.4	-4.6	84	-6.8	6	14	135	0.00	1034.172	0	0.000	0
20071217 22:25	-4.5	-4.5	-4.5	84	-6.8	5	13	112	0.00	1034.341	0	0.000	0
20071217 22:30	-4.5	-4.5	-4.5	84	-6.8	5	10	112	0.00	1034.443	0	0.000	0
20071217 22:35	-4.5	-8.6	-4.5	84	-6.8	10	23	112	0.00	1034.443	0	0.000	0
20071217 22:40	-4.4	-8.5	-4.4	84	-6.7	10	19	112	0.00	1034.477	0	0.000	0
20071217 22:45	-4.4	-4.4	-4.4	84	-6.7	5	14	112	0.00	1034.477	0	0.000	0
20071217 22:50	-4.4	-7.2	-4.4	84	-6.7	6	23	112	0.00	1034.511	0	0.000	0
20071217 22:55	-4.4	-8.4	-4.4	84	-6.7	10	19	112	0.00	1034.578	0	0.000	0
20071217 23:00	-4.4	-8.9	-4.4	84	-6.7	11	26	135	0.00	1034.646	0	0.000	0
20071217 23:05	-4.4	-9.4	-4.4	84	-6.7	13	26	112	0.00	1034.578	0	0.000	0
20071217 23:10	-4.4	-9.0	-4.4	84	-6.7	11	21	112	0.00	1034.511	0	0.000	0
20071217 23:15	-4.4	-8.0	-4.4	84	-6.7	8	19	112	0.00	1034.545	0	0.000	0
20071217 23:20	-4.4	-7.3	-4.4	84	-6.7	6	14	135	0.00	1034.545	0	0.000	0
20071217 23:25	-4.4	-8.0	-4.4	84	-6.7	8	16	112	0.00	1034.578	0	0.000	0
20071217 23:30	-4.4	-7.9	-4.4	84	-6.7	8	18	90	0.00	1034.545	0	0.000	0
20071217 23:35	-4.4	-8.0	-4.4	84	-6.7	8	19	112	0.00	1034.477	0	0.000	0
20071217 23:40	-4.4	-7.3	-4.4	84	-6.7	6	19	112	0.00	1034.511	0	0.000	0
20071217 23:45	-4.4	-4.4	-4.4	84	-6.7	5	10	135	0.00	1034.578	0	0.000	0
20071217 23:50	-4.4	-7.3	-4.4	84	-6.7	6	16	112	0.00	1034.511	0	0.000	0
20071217 23:55	-4.5	-8.0	-4.5	84	-6.8	8	18	90	0.00	1034.511	0	0.000	0
20071217 24:00	-4.6	-8.1	-4.6	84	-6.8	8	16	135	0.00	1034.443	0	0.000	0



Please note the license to use and transfer of this data:
http://creativecommons.org/licenses/by-nc-sa/3.0/deed.en

Bitte beachten sie die Lizenz zur Verwertung und Weitergabe der Daten:
http://creativecommons.org/licenses/by-nc-sa/3.0/deed.de

zurück zur Übersicht der Archivdaten (Monats und Tagesdaten)

Cookies helfen bei der Bereitstellung von Inhalten. Durch die Nutzung dieser Seiten erklärst du dich damit einverstanden, dass Cookies auf deinem Rechner gespeichert werden. Weitere Information